Main page
METAR-TAF:

METAR-TAF

Airports :

Madrid-Torrejón, Spain

Madrid–Torrejón Airport

latitude: 40-29N, longitude: 003-27W, elevation: 607 m

Current weather observation

The report was made 30 minutes ago, at 07:00 UTC
Wind 5 kt from the Northeast
Temperature -1°C
Humidity 80%
Pressure 1018 hPa
Visibility 10 km or more
no clouds below 1500 m and no cumulonimbus

METAR: LETO 220700Z 05005KT CAVOK M01/M04 Q1018 NOSIG

Time: 08:30 (07:30 UTC)

Forecast

The report was made 2 hours and 30 minutes ago, at 05:00 UTC
Forecast valid from 22 at 06 UTC to 23 at 06 UTC
Wind 5 kt from variable directions
Visibility 10 km or more
no clouds below 1500 m and no cumulonimbus
Probability 40% :
Temporary
from 22 at 12 UTC to 22 at 16 UTC
Wind 10 kt from the Southwest

TAF: LETO 220500Z 2206/2306 VRB05KT CAVOK TX17/2215Z TNM02/2206Z PROB40 TEMPO 2212/2216 22010KT

Weather observations and forecasts of more than 4000 airports (METAR and TAF reports).

The available stations are represented by yellow and red dots on the map.

Hover mouse over dot to see the name of the station.

Then click to see weather observations and forecasts.

To change the map : click on the green buttons with a black cross to zoom in, on the green button with a dash to zoom out, or on the green arrows for adjacent maps.


METAR-TAF: